sensor_id;sensor_type;location;lat;lon;timestamp;P1;durP1;ratioP1;P2;durP2;ratioP2
2748;SDS011;1382;52.142;11.618;2022-11-21T00:01:35;21.03;;;11.57;;
2748;SDS011;1382;52.142;11.618;2022-11-21T00:04:02;19.20;;;11.80;;
2748;SDS011;1382;52.142;11.618;2022-11-21T00:06:29;22.40;;;12.20;;
2748;SDS011;1382;52.142;11.618;2022-11-21T00:08:56;19.37;;;10.70;;
2748;SDS011;1382;52.142;11.618;2022-11-21T00:11:23;19.60;;;9.57;;
2748;SDS011;1382;52.142;11.618;2022-11-21T00:13:50;24.07;;;11.87;;
2748;SDS011;1382;52.142;11.618;2022-11-21T00:16:16;21.23;;;10.60;;
2748;SDS011;1382;52.142;11.618;2022-11-21T00:18:44;18.77;;;10.70;;
2748;SDS011;1382;52.142;11.618;2022-11-21T00:21:12;19.40;;;11.00;;
2748;SDS011;1382;52.142;11.618;2022-11-21T00:23:40;17.40;;;9.67;;
2748;SDS011;1382;52.142;11.618;2022-11-21T00:26:07;21.57;;;11.17;;
2748;SDS011;1382;52.142;11.618;2022-11-21T00:28:35;24.10;;;12.70;;
2748;SDS011;1382;52.142;11.618;2022-11-21T00:31:03;16.07;;;9.60;;
2748;SDS011;1382;52.142;11.618;2022-11-21T00:33:30;22.33;;;11.73;;
2748;SDS011;1382;52.142;11.618;2022-11-21T00:36:05;18.27;;;9.93;;
2748;SDS011;1382;52.142;11.618;2022-11-21T00:38:32;22.53;;;10.43;;
2748;SDS011;1382;52.142;11.618;2022-11-21T00:40:59;21.23;;;10.67;;
2748;SDS011;1382;52.142;11.618;2022-11-21T00:43:26;17.37;;;9.70;;
2748;SDS011;1382;52.142;11.618;2022-11-21T00:45:52;21.40;;;9.80;;
2748;SDS011;1382;52.142;11.618;2022-11-21T00:48:19;16.47;;;11.50;;
2748;SDS011;1382;52.142;11.618;2022-11-21T00:50:47;18.67;;;9.30;;
2748;SDS011;1382;52.142;11.618;2022-11-21T00:53:16;17.30;;;9.70;;
2748;SDS011;1382;52.142;11.618;2022-11-21T00:55:42;20.07;;;10.20;;
2748;SDS011;1382;52.142;11.618;2022-11-21T00:58:09;11.43;;;7.57;;
2748;SDS011;1382;52.142;11.618;2022-11-21T01:00:36;18.50;;;8.40;;
2748;SDS011;1382;52.142;11.618;2022-11-21T01:03:03;15.40;;;8.20;;
2748;SDS011;1382;52.142;11.618;2022-11-21T01:05:30;15.17;;;8.27;;
2748;SDS011;1382;52.142;11.618;2022-11-21T01:07:57;16.90;;;8.97;;
2748;SDS011;1382;52.142;11.618;2022-11-21T01:10:25;15.90;;;9.03;;
2748;SDS011;1382;52.142;11.618;2022-11-21T01:12:52;17.17;;;8.70;;
2748;SDS011;1382;52.142;11.618;2022-11-21T01:15:19;17.77;;;9.33;;
2748;SDS011;1382;52.142;11.618;2022-11-21T01:17:46;16.80;;;9.80;;
2748;SDS011;1382;52.142;11.618;2022-11-21T01:20:12;14.70;;;8.17;;
2748;SDS011;1382;52.142;11.618;2022-11-21T01:22:39;14.50;;;9.03;;
2748;SDS011;1382;52.142;11.618;2022-11-21T01:25:06;19.50;;;10.47;;
2748;SDS011;1382;52.142;11.618;2022-11-21T01:27:35;13.17;;;7.90;;
2748;SDS011;1382;52.142;11.618;2022-11-21T01:30:01;14.23;;;7.93;;
2748;SDS011;1382;52.142;11.618;2022-11-21T01:32:28;19.60;;;10.37;;
2748;SDS011;1382;52.142;11.618;2022-11-21T01:34:55;17.90;;;8.53;;
2748;SDS011;1382;52.142;11.618;2022-11-21T01:37:22;14.00;;;7.87;;
2748;SDS011;1382;52.142;11.618;2022-11-21T01:39:48;16.03;;;7.60;;
2748;SDS011;1382;52.142;11.618;2022-11-21T01:42:15;15.97;;;9.07;;
2748;SDS011;1382;52.142;11.618;2022-11-21T01:44:48;14.40;;;8.20;;
2748;SDS011;1382;52.142;11.618;2022-11-21T01:47:16;18.67;;;9.80;;
2748;SDS011;1382;52.142;11.618;2022-11-21T01:49:44;13.93;;;8.40;;
2748;SDS011;1382;52.142;11.618;2022-11-21T01:52:12;10.90;;;6.87;;
2748;SDS011;1382;52.142;11.618;2022-11-21T01:54:43;16.50;;;10.37;;
2748;SDS011;1382;52.142;11.618;2022-11-21T01:57:16;20.27;;;10.93;;
2748;SDS011;1382;52.142;11.618;2022-11-21T01:59:47;24.27;;;12.00;;
2748;SDS011;1382;52.142;11.618;2022-11-21T02:02:19;22.53;;;13.17;;
2748;SDS011;1382;52.142;11.618;2022-11-21T02:04:48;20.60;;;11.90;;
2748;SDS011;1382;52.142;11.618;2022-11-21T02:07:17;20.60;;;11.13;;
2748;SDS011;1382;52.142;11.618;2022-11-21T02:09:47;22.63;;;11.60;;
2748;SDS011;1382;52.142;11.618;2022-11-21T02:12:19;20.77;;;11.63;;
2748;SDS011;1382;52.142;11.618;2022-11-21T02:14:51;21.33;;;11.93;;
2748;SDS011;1382;52.142;11.618;2022-11-21T02:17:19;23.20;;;13.87;;
2748;SDS011;1382;52.142;11.618;2022-11-21T02:19:48;24.37;;;13.77;;
2748;SDS011;1382;52.142;11.618;2022-11-21T02:22:20;22.40;;;12.53;;
2748;SDS011;1382;52.142;11.618;2022-11-21T02:25:02;26.47;;;13.23;;
2748;SDS011;1382;52.142;11.618;2022-11-21T02:27:30;23.47;;;12.60;;
2748;SDS011;1382;52.142;11.618;2022-11-21T02:29:58;24.40;;;15.07;;
2748;SDS011;1382;52.142;11.618;2022-11-21T02:32:30;22.83;;;14.30;;
2748;SDS011;1382;52.142;11.618;2022-11-21T02:34:58;19.20;;;12.00;;
2748;SDS011;1382;52.142;11.618;2022-11-21T02:37:25;24.50;;;12.83;;
2748;SDS011;1382;52.142;11.618;2022-11-21T02:39:52;21.67;;;14.13;;
2748;SDS011;1382;52.142;11.618;2022-11-21T02:42:22;23.63;;;14.13;;
2748;SDS011;1382;52.142;11.618;2022-11-21T02:44:55;24.87;;;13.97;;
2748;SDS011;1382;52.142;11.618;2022-11-21T02:47:33;18.87;;;10.47;;
2748;SDS011;1382;52.142;11.618;2022-11-21T02:50:02;18.63;;;12.20;;
2748;SDS011;1382;52.142;11.618;2022-11-21T02:52:35;21.07;;;13.53;;
2748;SDS011;1382;52.142;11.618;2022-11-21T02:55:01;19.00;;;11.80;;
2748;SDS011;1382;52.142;11.618;2022-11-21T02:57:30;25.17;;;13.03;;
2748;SDS011;1382;52.142;11.618;2022-11-21T02:59:57;23.10;;;14.50;;
2748;SDS011;1382;52.142;11.618;2022-11-21T03:02:23;19.13;;;12.10;;
2748;SDS011;1382;52.142;11.618;2022-11-21T03:04:50;17.57;;;11.83;;
2748;SDS011;1382;52.142;11.618;2022-11-21T03:07:17;21.70;;;14.03;;
2748;SDS011;1382;52.142;11.618;2022-11-21T03:09:44;25.43;;;12.00;;
2748;SDS011;1382;52.142;11.618;2022-11-21T03:12:10;25.37;;;14.13;;
2748;SDS011;1382;52.142;11.618;2022-11-21T03:14:38;25.43;;;13.70;;
2748;SDS011;1382;52.142;11.618;2022-11-21T03:17:05;29.07;;;14.80;;
2748;SDS011;1382;52.142;11.618;2022-11-21T03:19:32;25.17;;;13.80;;
2748;SDS011;1382;52.142;11.618;2022-11-21T03:21:59;20.60;;;12.87;;
2748;SDS011;1382;52.142;11.618;2022-11-21T03:24:25;24.80;;;13.27;;
2748;SDS011;1382;52.142;11.618;2022-11-21T03:26:52;24.70;;;14.10;;
2748;SDS011;1382;52.142;11.618;2022-11-21T03:29:19;26.07;;;13.30;;
2748;SDS011;1382;52.142;11.618;2022-11-21T03:31:47;25.40;;;13.53;;
2748;SDS011;1382;52.142;11.618;2022-11-21T03:34:14;24.13;;;14.03;;
2748;SDS011;1382;52.142;11.618;2022-11-21T03:36:41;23.17;;;14.73;;
2748;SDS011;1382;52.142;11.618;2022-11-21T03:39:07;26.67;;;13.40;;
2748;SDS011;1382;52.142;11.618;2022-11-21T03:41:34;21.77;;;13.70;;
2748;SDS011;1382;52.142;11.618;2022-11-21T03:44:01;24.53;;;13.90;;
2748;SDS011;1382;52.142;11.618;2022-11-21T03:46:31;23.73;;;14.53;;
2748;SDS011;1382;52.142;11.618;2022-11-21T03:49:01;28.43;;;14.63;;
2748;SDS011;1382;52.142;11.618;2022-11-21T03:51:28;23.40;;;14.20;;
2748;SDS011;1382;52.142;11.618;2022-11-21T03:53:55;22.57;;;13.20;;
2748;SDS011;1382;52.142;11.618;2022-11-21T03:56:22;27.20;;;14.17;;
2748;SDS011;1382;52.142;11.618;2022-11-21T03:58:49;24.87;;;15.30;;
2748;SDS011;1382;52.142;11.618;2022-11-21T04:01:16;25.20;;;14.77;;
2748;SDS011;1382;52.142;11.618;2022-11-21T04:03:43;24.00;;;15.07;;
2748;SDS011;1382;52.142;11.618;2022-11-21T04:06:13;23.80;;;15.37;;
2748;SDS011;1382;52.142;11.618;2022-11-21T04:08:42;23.00;;;13.83;;
2748;SDS011;1382;52.142;11.618;2022-11-21T04:11:09;24.23;;;15.13;;
2748;SDS011;1382;52.142;11.618;2022-11-21T04:13:36;25.30;;;14.33;;
2748;SDS011;1382;52.142;11.618;2022-11-21T04:16:03;26.03;;;14.60;;
2748;SDS011;1382;52.142;11.618;2022-11-21T04:18:32;25.60;;;15.63;;
2748;SDS011;1382;52.142;11.618;2022-11-21T04:21:00;24.37;;;14.83;;
2748;SDS011;1382;52.142;11.618;2022-11-21T04:23:30;18.90;;;11.03;;
2748;SDS011;1382;52.142;11.618;2022-11-21T04:25:57;25.63;;;14.23;;
2748;SDS011;1382;52.142;11.618;2022-11-21T04:28:24;24.23;;;14.30;;
2748;SDS011;1382;52.142;11.618;2022-11-21T04:30:51;27.07;;;15.67;;
2748;SDS011;1382;52.142;11.618;2022-11-21T04:33:20;25.20;;;14.70;;
2748;SDS011;1382;52.142;11.618;2022-11-21T04:35:47;23.80;;;13.30;;
2748;SDS011;1382;52.142;11.618;2022-11-21T04:38:14;24.50;;;14.37;;
2748;SDS011;1382;52.142;11.618;2022-11-21T04:40:43;22.50;;;14.07;;
2748;SDS011;1382;52.142;11.618;2022-11-21T04:43:09;19.67;;;12.57;;
2748;SDS011;1382;52.142;11.618;2022-11-21T04:45:36;24.50;;;15.30;;
2748;SDS011;1382;52.142;11.618;2022-11-21T04:48:03;24.87;;;15.60;;
2748;SDS011;1382;52.142;11.618;2022-11-21T04:50:30;23.20;;;14.70;;
2748;SDS011;1382;52.142;11.618;2022-11-21T04:52:57;23.80;;;15.70;;
2748;SDS011;1382;52.142;11.618;2022-11-21T04:55:26;23.47;;;14.83;;
2748;SDS011;1382;52.142;11.618;2022-11-21T04:57:56;23.30;;;12.73;;
2748;SDS011;1382;52.142;11.618;2022-11-21T05:00:23;24.53;;;14.47;;
2748;SDS011;1382;52.142;11.618;2022-11-21T05:02:50;23.80;;;14.37;;
2748;SDS011;1382;52.142;11.618;2022-11-21T05:05:17;20.23;;;13.73;;
2748;SDS011;1382;52.142;11.618;2022-11-21T05:07:44;21.10;;;13.77;;
2748;SDS011;1382;52.142;11.618;2022-11-21T05:10:11;27.10;;;13.60;;
2748;SDS011;1382;52.142;11.618;2022-11-21T05:12:38;20.37;;;13.33;;
2748;SDS011;1382;52.142;11.618;2022-11-21T05:15:06;22.60;;;13.20;;
2748;SDS011;1382;52.142;11.618;2022-11-21T05:17:33;22.57;;;12.60;;
2748;SDS011;1382;52.142;11.618;2022-11-21T05:20:00;21.97;;;14.23;;
2748;SDS011;1382;52.142;11.618;2022-11-21T05:22:27;20.83;;;14.40;;
2748;SDS011;1382;52.142;11.618;2022-11-21T05:24:53;23.47;;;13.63;;
2748;SDS011;1382;52.142;11.618;2022-11-21T05:27:20;27.90;;;12.80;;
2748;SDS011;1382;52.142;11.618;2022-11-21T05:29:47;17.97;;;11.60;;
2748;SDS011;1382;52.142;11.618;2022-11-21T05:32:15;21.73;;;13.73;;
2748;SDS011;1382;52.142;11.618;2022-11-21T05:34:42;19.20;;;13.10;;
2748;SDS011;1382;52.142;11.618;2022-11-21T05:37:09;21.67;;;14.60;;
2748;SDS011;1382;52.142;11.618;2022-11-21T05:39:35;18.80;;;12.63;;
2748;SDS011;1382;52.142;11.618;2022-11-21T05:42:02;19.60;;;12.50;;
2748;SDS011;1382;52.142;11.618;2022-11-21T05:44:29;21.00;;;12.40;;
2748;SDS011;1382;52.142;11.618;2022-11-21T05:46:56;18.60;;;13.73;;
2748;SDS011;1382;52.142;11.618;2022-11-21T05:49:24;21.87;;;14.30;;
2748;SDS011;1382;52.142;11.618;2022-11-21T05:51:51;21.70;;;12.83;;
2748;SDS011;1382;52.142;11.618;2022-11-21T05:54:18;22.50;;;13.33;;
2748;SDS011;1382;52.142;11.618;2022-11-21T05:56:45;19.10;;;12.50;;
2748;SDS011;1382;52.142;11.618;2022-11-21T05:59:12;24.07;;;14.97;;
2748;SDS011;1382;52.142;11.618;2022-11-21T06:01:38;22.57;;;14.20;;
2748;SDS011;1382;52.142;11.618;2022-11-21T06:04:05;22.80;;;12.10;;
2748;SDS011;1382;52.142;11.618;2022-11-21T06:06:34;21.50;;;13.70;;
2748;SDS011;1382;52.142;11.618;2022-11-21T06:09:02;20.67;;;13.60;;
2748;SDS011;1382;52.142;11.618;2022-11-21T06:11:29;23.40;;;12.97;;
2748;SDS011;1382;52.142;11.618;2022-11-21T06:13:56;19.63;;;11.57;;
2748;SDS011;1382;52.142;11.618;2022-11-21T06:16:23;18.40;;;10.03;;
2748;SDS011;1382;52.142;11.618;2022-11-21T06:18:50;17.47;;;10.10;;
2748;SDS011;1382;52.142;11.618;2022-11-21T06:21:24;17.50;;;11.97;;
2748;SDS011;1382;52.142;11.618;2022-11-21T06:23:53;19.40;;;11.53;;
2748;SDS011;1382;52.142;11.618;2022-11-21T06:26:21;18.33;;;11.03;;
2748;SDS011;1382;52.142;11.618;2022-11-21T06:28:49;18.73;;;11.73;;
2748;SDS011;1382;52.142;11.618;2022-11-21T06:31:17;15.77;;;9.73;;
2748;SDS011;1382;52.142;11.618;2022-11-21T06:33:45;14.50;;;9.93;;
2748;SDS011;1382;52.142;11.618;2022-11-21T06:36:12;18.73;;;10.60;;
2748;SDS011;1382;52.142;11.618;2022-11-21T06:38:40;16.57;;;10.70;;
2748;SDS011;1382;52.142;11.618;2022-11-21T06:41:10;13.10;;;8.73;;
2748;SDS011;1382;52.142;11.618;2022-11-21T06:43:38;16.40;;;8.93;;
2748;SDS011;1382;52.142;11.618;2022-11-21T06:46:05;14.47;;;8.27;;
2748;SDS011;1382;52.142;11.618;2022-11-21T06:48:32;16.27;;;10.37;;
2748;SDS011;1382;52.142;11.618;2022-11-21T06:51:02;22.53;;;11.60;;
2748;SDS011;1382;52.142;11.618;2022-11-21T06:53:29;16.80;;;10.50;;
2748;SDS011;1382;52.142;11.618;2022-11-21T06:55:57;16.30;;;11.37;;
2748;SDS011;1382;52.142;11.618;2022-11-21T06:58:25;16.70;;;9.83;;
2748;SDS011;1382;52.142;11.618;2022-11-21T07:00:52;17.20;;;10.87;;
2748;SDS011;1382;52.142;11.618;2022-11-21T07:03:19;15.93;;;10.90;;
2748;SDS011;1382;52.142;11.618;2022-11-21T07:05:45;18.57;;;11.90;;
2748;SDS011;1382;52.142;11.618;2022-11-21T07:08:12;19.17;;;11.25;;
2748;SDS011;1382;52.142;11.618;2022-11-21T07:10:39;19.63;;;13.00;;
2748;SDS011;1382;52.142;11.618;2022-11-21T07:13:28;17.30;;;11.67;;
2748;SDS011;1382;52.142;11.618;2022-11-21T07:15:59;21.23;;;13.33;;
2748;SDS011;1382;52.142;11.618;2022-11-21T07:18:27;20.93;;;12.63;;
2748;SDS011;1382;52.142;11.618;2022-11-21T07:20:56;23.77;;;12.80;;
2748;SDS011;1382;52.142;11.618;2022-11-21T07:23:23;18.87;;;11.67;;
2748;SDS011;1382;52.142;11.618;2022-11-21T07:25:50;15.80;;;10.10;;
2748;SDS011;1382;52.142;11.618;2022-11-21T07:28:16;20.20;;;11.30;;
2748;SDS011;1382;52.142;11.618;2022-11-21T07:30:45;18.63;;;12.60;;
2748;SDS011;1382;52.142;11.618;2022-11-21T07:33:11;20.03;;;13.20;;
2748;SDS011;1382;52.142;11.618;2022-11-21T07:35:38;25.87;;;11.70;;
2748;SDS011;1382;52.142;11.618;2022-11-21T07:38:05;20.43;;;12.27;;
2748;SDS011;1382;52.142;11.618;2022-11-21T07:40:32;19.73;;;12.43;;
2748;SDS011;1382;52.142;11.618;2022-11-21T07:42:59;22.30;;;11.53;;
2748;SDS011;1382;52.142;11.618;2022-11-21T07:45:29;19.27;;;11.57;;
2748;SDS011;1382;52.142;11.618;2022-11-21T07:47:58;16.47;;;12.10;;
2748;SDS011;1382;52.142;11.618;2022-11-21T07:50:25;20.80;;;11.27;;
2748;SDS011;1382;52.142;11.618;2022-11-21T07:52:55;18.17;;;11.37;;
2748;SDS011;1382;52.142;11.618;2022-11-21T07:55:22;19.20;;;11.97;;
2748;SDS011;1382;52.142;11.618;2022-11-21T07:57:55;17.70;;;11.70;;
2748;SDS011;1382;52.142;11.618;2022-11-21T08:00:23;20.30;;;11.30;;
2748;SDS011;1382;52.142;11.618;2022-11-21T08:02:50;22.00;;;12.37;;
2748;SDS011;1382;52.142;11.618;2022-11-21T08:05:18;19.30;;;10.93;;
2748;SDS011;1382;52.142;11.618;2022-11-21T08:07:45;17.37;;;11.30;;
2748;SDS011;1382;52.142;11.618;2022-11-21T08:10:12;20.80;;;10.67;;
2748;SDS011;1382;52.142;11.618;2022-11-21T08:12:39;16.70;;;12.10;;
2748;SDS011;1382;52.142;11.618;2022-11-21T08:15:06;19.20;;;10.40;;
2748;SDS011;1382;52.142;11.618;2022-11-21T08:17:33;15.53;;;9.37;;
2748;SDS011;1382;52.142;11.618;2022-11-21T08:20:00;21.60;;;11.10;;
2748;SDS011;1382;52.142;11.618;2022-11-21T08:22:28;20.40;;;11.25;;
2748;SDS011;1382;52.142;11.618;2022-11-21T08:24:55;20.57;;;11.53;;
2748;SDS011;1382;52.142;11.618;2022-11-21T08:27:22;18.40;;;11.60;;
2748;SDS011;1382;52.142;11.618;2022-11-21T08:29:48;17.90;;;11.77;;
2748;SDS011;1382;52.142;11.618;2022-11-21T08:32:15;16.87;;;10.53;;
2748;SDS011;1382;52.142;11.618;2022-11-21T08:34:42;17.20;;;11.43;;
2748;SDS011;1382;52.142;11.618;2022-11-21T08:37:09;16.87;;;10.70;;
2748;SDS011;1382;52.142;11.618;2022-11-21T08:39:37;17.52;;;10.57;;
2748;SDS011;1382;52.142;11.618;2022-11-21T08:42:04;13.85;;;9.95;;
2748;SDS011;1382;52.142;11.618;2022-11-21T08:44:31;14.47;;;9.63;;
2748;SDS011;1382;52.142;11.618;2022-11-21T08:46:59;15.13;;;10.60;;
2748;SDS011;1382;52.142;11.618;2022-11-21T08:49:27;15.35;;;9.63;;
2748;SDS011;1382;52.142;11.618;2022-11-21T08:51:54;15.03;;;10.00;;
2748;SDS011;1382;52.142;11.618;2022-11-21T08:54:21;14.07;;;8.73;;
2748;SDS011;1382;52.142;11.618;2022-11-21T08:56:50;13.03;;;7.40;;
2748;SDS011;1382;52.142;11.618;2022-11-21T08:59:18;13.25;;;8.82;;
2748;SDS011;1382;52.142;11.618;2022-11-21T09:01:45;15.83;;;10.10;;
2748;SDS011;1382;52.142;11.618;2022-11-21T09:04:11;19.50;;;11.65;;
2748;SDS011;1382;52.142;11.618;2022-11-21T09:06:38;13.53;;;9.53;;
2748;SDS011;1382;52.142;11.618;2022-11-21T09:09:05;16.63;;;12.07;;
2748;SDS011;1382;52.142;11.618;2022-11-21T09:11:32;15.37;;;10.07;;
2748;SDS011;1382;52.142;11.618;2022-11-21T09:14:01;12.83;;;9.40;;
2748;SDS011;1382;52.142;11.618;2022-11-21T09:16:28;13.20;;;8.73;;
2748;SDS011;1382;52.142;11.618;2022-11-21T09:18:55;13.50;;;8.73;;
2748;SDS011;1382;52.142;11.618;2022-11-21T09:21:22;17.67;;;7.87;;
2748;SDS011;1382;52.142;11.618;2022-11-21T09:23:49;11.73;;;8.57;;
2748;SDS011;1382;52.142;11.618;2022-11-21T09:26:15;17.17;;;10.47;;
2748;SDS011;1382;52.142;11.618;2022-11-21T09:28:42;13.17;;;10.30;;
2748;SDS011;1382;52.142;11.618;2022-11-21T09:31:10;12.47;;;7.87;;
2748;SDS011;1382;52.142;11.618;2022-11-21T09:33:37;12.17;;;8.30;;
2748;SDS011;1382;52.142;11.618;2022-11-21T09:36:04;18.27;;;10.20;;
2748;SDS011;1382;52.142;11.618;2022-11-21T09:38:31;17.20;;;10.27;;
2748;SDS011;1382;52.142;11.618;2022-11-21T09:40:59;20.13;;;10.60;;
2748;SDS011;1382;52.142;11.618;2022-11-21T09:43:41;17.40;;;10.67;;
2748;SDS011;1382;52.142;11.618;2022-11-21T09:46:22;17.20;;;10.10;;
2748;SDS011;1382;52.142;11.618;2022-11-21T09:48:55;14.60;;;10.80;;
2748;SDS011;1382;52.142;11.618;2022-11-21T09:51:26;15.57;;;10.00;;
2748;SDS011;1382;52.142;11.618;2022-11-21T09:53:56;18.13;;;11.67;;
2748;SDS011;1382;52.142;11.618;2022-11-21T09:56:27;16.37;;;9.93;;
2748;SDS011;1382;52.142;11.618;2022-11-21T09:59:11;17.00;;;10.33;;
2748;SDS011;1382;52.142;11.618;2022-11-21T10:01:51;16.77;;;10.53;;
2748;SDS011;1382;52.142;11.618;2022-11-21T10:04:18;19.67;;;11.80;;
2748;SDS011;1382;52.142;11.618;2022-11-21T10:06:47;20.13;;;11.90;;
2748;SDS011;1382;52.142;11.618;2022-11-21T10:09:22;20.23;;;12.07;;
2748;SDS011;1382;52.142;11.618;2022-11-21T10:12:00;16.50;;;9.90;;
2748;SDS011;1382;52.142;11.618;2022-11-21T10:14:36;21.50;;;12.40;;
2748;SDS011;1382;52.142;11.618;2022-11-21T10:17:19;16.60;;;9.60;;
2748;SDS011;1382;52.142;11.618;2022-11-21T10:20:02;19.00;;;12.60;;
2748;SDS011;1382;52.142;11.618;2022-11-21T10:22:50;25.30;;;13.97;;
2748;SDS011;1382;52.142;11.618;2022-11-21T10:25:28;18.27;;;10.43;;
2748;SDS011;1382;52.142;11.618;2022-11-21T10:27:59;26.60;;;14.30;;
2748;SDS011;1382;52.142;11.618;2022-11-21T10:30:29;23.50;;;14.50;;
2748;SDS011;1382;52.142;11.618;2022-11-21T10:33:00;22.07;;;13.00;;
2748;SDS011;1382;52.142;11.618;2022-11-21T10:35:29;20.57;;;12.03;;
2748;SDS011;1382;52.142;11.618;2022-11-21T10:38:10;25.33;;;12.90;;
2748;SDS011;1382;52.142;11.618;2022-11-21T10:40:45;24.00;;;12.80;;
2748;SDS011;1382;52.142;11.618;2022-11-21T10:43:18;25.77;;;14.03;;
2748;SDS011;1382;52.142;11.618;2022-11-21T10:45:54;27.40;;;14.50;;
2748;SDS011;1382;52.142;11.618;2022-11-21T10:48:22;23.83;;;13.60;;
2748;SDS011;1382;52.142;11.618;2022-11-21T10:50:52;23.40;;;12.50;;
2748;SDS011;1382;52.142;11.618;2022-11-21T10:53:35;26.93;;;14.30;;
2748;SDS011;1382;52.142;11.618;2022-11-21T10:56:03;27.83;;;14.87;;
2748;SDS011;1382;52.142;11.618;2022-11-21T10:58:41;26.33;;;12.30;;
2748;SDS011;1382;52.142;11.618;2022-11-21T11:01:19;29.93;;;15.37;;
2748;SDS011;1382;52.142;11.618;2022-11-21T11:03:49;27.43;;;15.47;;
2748;SDS011;1382;52.142;11.618;2022-11-21T11:06:50;20.30;;;12.03;;
2748;SDS011;1382;52.142;11.618;2022-11-21T11:09:21;23.87;;;13.90;;
2748;SDS011;1382;52.142;11.618;2022-11-21T11:11:52;22.83;;;13.60;;
2748;SDS011;1382;52.142;11.618;2022-11-21T11:14:29;22.60;;;12.83;;
2748;SDS011;1382;52.142;11.618;2022-11-21T11:16:57;22.00;;;13.23;;
2748;SDS011;1382;52.142;11.618;2022-11-21T11:19:26;13.77;;;9.17;;
2748;SDS011;1382;52.142;11.618;2022-11-21T11:22:06;17.57;;;10.03;;
2748;SDS011;1382;52.142;11.618;2022-11-21T11:24:52;14.10;;;8.67;;
2748;SDS011;1382;52.142;11.618;2022-11-21T11:27:26;19.77;;;11.13;;
2748;SDS011;1382;52.142;11.618;2022-11-21T11:29:53;19.47;;;11.10;;
2748;SDS011;1382;52.142;11.618;2022-11-21T11:32:20;29.10;;;14.27;;
2748;SDS011;1382;52.142;11.618;2022-11-21T11:34:50;20.80;;;11.37;;
2748;SDS011;1382;52.142;11.618;2022-11-21T11:37:25;25.90;;;15.60;;
2748;SDS011;1382;52.142;11.618;2022-11-21T11:40:07;28.80;;;16.67;;
2748;SDS011;1382;52.142;11.618;2022-11-21T11:42:47;29.30;;;15.70;;
2748;SDS011;1382;52.142;11.618;2022-11-21T11:45:41;25.03;;;15.10;;
2748;SDS011;1382;52.142;11.618;2022-11-21T11:48:28;23.90;;;13.97;;
2748;SDS011;1382;52.142;11.618;2022-11-21T11:50:59;25.50;;;13.73;;
2748;SDS011;1382;52.142;11.618;2022-11-21T11:53:30;23.83;;;11.80;;
2748;SDS011;1382;52.142;11.618;2022-11-21T11:56:04;21.10;;;13.43;;
2748;SDS011;1382;52.142;11.618;2022-11-21T11:58:37;23.50;;;13.00;;
2748;SDS011;1382;52.142;11.618;2022-11-21T12:01:10;24.50;;;13.27;;
2748;SDS011;1382;52.142;11.618;2022-11-21T12:03:42;23.50;;;13.13;;
2748;SDS011;1382;52.142;11.618;2022-11-21T12:06:23;21.67;;;13.17;;
2748;SDS011;1382;52.142;11.618;2022-11-21T12:09:13;23.20;;;13.37;;
2748;SDS011;1382;52.142;11.618;2022-11-21T12:11:52;16.33;;;11.07;;
2748;SDS011;1382;52.142;11.618;2022-11-21T12:14:29;20.90;;;11.97;;
2748;SDS011;1382;52.142;11.618;2022-11-21T12:17:04;20.37;;;11.33;;
2748;SDS011;1382;52.142;11.618;2022-11-21T12:19:33;14.50;;;8.57;;
2748;SDS011;1382;52.142;11.618;2022-11-21T12:22:03;16.60;;;9.50;;
2748;SDS011;1382;52.142;11.618;2022-11-21T12:24:30;12.87;;;7.47;;
2748;SDS011;1382;52.142;11.618;2022-11-21T12:26:58;13.17;;;8.30;;
2748;SDS011;1382;52.142;11.618;2022-11-21T12:29:34;10.63;;;8.07;;
2748;SDS011;1382;52.142;11.618;2022-11-21T12:32:15;11.80;;;7.57;;
2748;SDS011;1382;52.142;11.618;2022-11-21T12:34:59;11.03;;;7.60;;
2748;SDS011;1382;52.142;11.618;2022-11-21T12:37:42;15.00;;;8.17;;
2748;SDS011;1382;52.142;11.618;2022-11-21T12:40:35;14.07;;;8.60;;
2748;SDS011;1382;52.142;11.618;2022-11-21T12:43:12;11.67;;;6.23;;
2748;SDS011;1382;52.142;11.618;2022-11-21T12:45:46;12.10;;;7.00;;
2748;SDS011;1382;52.142;11.618;2022-11-21T12:48:17;12.87;;;6.90;;
2748;SDS011;1382;52.142;11.618;2022-11-21T12:50:49;13.37;;;7.40;;
2748;SDS011;1382;52.142;11.618;2022-11-21T12:53:28;15.20;;;8.53;;
2748;SDS011;1382;52.142;11.618;2022-11-21T12:56:06;13.73;;;8.33;;
2748;SDS011;1382;52.142;11.618;2022-11-21T12:58:39;14.30;;;9.57;;
2748;SDS011;1382;52.142;11.618;2022-11-21T13:01:18;14.07;;;7.40;;
2748;SDS011;1382;52.142;11.618;2022-11-21T13:03:56;11.27;;;7.07;;
2748;SDS011;1382;52.142;11.618;2022-11-21T13:06:26;13.00;;;7.53;;
2748;SDS011;1382;52.142;11.618;2022-11-21T13:08:56;17.23;;;9.80;;
2748;SDS011;1382;52.142;11.618;2022-11-21T13:11:31;14.60;;;8.47;;
2748;SDS011;1382;52.142;11.618;2022-11-21T13:14:06;12.70;;;8.33;;
2748;SDS011;1382;52.142;11.618;2022-11-21T13:16:38;15.17;;;8.77;;
2748;SDS011;1382;52.142;11.618;2022-11-21T13:19:17;17.97;;;9.50;;
2748;SDS011;1382;52.142;11.618;2022-11-21T13:21:48;23.23;;;13.77;;
2748;SDS011;1382;52.142;11.618;2022-11-21T13:27:28;24.27;;;11.47;;
2748;SDS011;1382;52.142;11.618;2022-11-21T13:30:20;8.60;;;4.40;;
2748;SDS011;1382;52.142;11.618;2022-11-21T13:32:49;13.20;;;8.70;;
2748;SDS011;1382;52.142;11.618;2022-11-21T13:38:29;22.07;;;12.70;;
2748;SDS011;1382;52.142;11.618;2022-11-21T13:40:57;13.20;;;9.70;;
2748;SDS011;1382;52.142;11.618;2022-11-21T13:43:24;16.57;;;9.00;;
2748;SDS011;1382;52.142;11.618;2022-11-21T13:46:00;16.93;;;10.77;;
2748;SDS011;1382;52.142;11.618;2022-11-21T13:48:48;14.57;;;10.23;;
2748;SDS011;1382;52.142;11.618;2022-11-21T13:54:48;15.40;;;9.77;;
2748;SDS011;1382;52.142;11.618;2022-11-21T13:57:50;10.50;;;7.00;;
2748;SDS011;1382;52.142;11.618;2022-11-21T14:00:28;14.20;;;9.30;;
2748;SDS011;1382;52.142;11.618;2022-11-21T14:03:12;14.20;;;8.63;;
2748;SDS011;1382;52.142;11.618;2022-11-21T14:06:12;11.57;;;9.03;;
2748;SDS011;1382;52.142;11.618;2022-11-21T14:09:16;13.37;;;7.60;;
2748;SDS011;1382;52.142;11.618;2022-11-21T14:11:49;11.57;;;8.53;;
2748;SDS011;1382;52.142;11.618;2022-11-21T14:14:25;10.03;;;6.37;;
2748;SDS011;1382;52.142;11.618;2022-11-21T14:16:57;10.17;;;7.37;;
2748;SDS011;1382;52.142;11.618;2022-11-21T14:19:42;8.93;;;6.63;;
2748;SDS011;1382;52.142;11.618;2022-11-21T14:22:13;15.03;;;7.80;;
2748;SDS011;1382;52.142;11.618;2022-11-21T14:24:41;8.73;;;5.37;;
2748;SDS011;1382;52.142;11.618;2022-11-21T14:27:10;8.87;;;6.43;;
2748;SDS011;1382;52.142;11.618;2022-11-21T14:29:48;8.27;;;4.83;;
2748;SDS011;1382;52.142;11.618;2022-11-21T14:32:14;9.73;;;5.70;;
2748;SDS011;1382;52.142;11.618;2022-11-21T14:34:42;10.23;;;6.40;;
2748;SDS011;1382;52.142;11.618;2022-11-21T14:37:09;7.80;;;5.07;;
2748;SDS011;1382;52.142;11.618;2022-11-21T14:39:39;10.83;;;6.10;;
2748;SDS011;1382;52.142;11.618;2022-11-21T14:42:10;9.80;;;6.03;;
2748;SDS011;1382;52.142;11.618;2022-11-21T14:44:39;8.80;;;5.80;;
2748;SDS011;1382;52.142;11.618;2022-11-21T14:47:11;6.83;;;4.80;;
2748;SDS011;1382;52.142;11.618;2022-11-21T14:49:49;10.17;;;4.87;;
2748;SDS011;1382;52.142;11.618;2022-11-21T14:52:18;8.30;;;5.77;;
2748;SDS011;1382;52.142;11.618;2022-11-21T14:54:50;18.30;;;6.53;;
2748;SDS011;1382;52.142;11.618;2022-11-21T14:57:40;8.67;;;6.83;;
2748;SDS011;1382;52.142;11.618;2022-11-21T15:00:10;9.47;;;6.73;;
2748;SDS011;1382;52.142;11.618;2022-11-21T15:03:01;9.07;;;6.77;;
2748;SDS011;1382;52.142;11.618;2022-11-21T15:05:29;9.80;;;5.00;;
2748;SDS011;1382;52.142;11.618;2022-11-21T15:08:20;6.70;;;4.77;;